Big Bend, West Virginia
Current Conditions -  °F | °C
As of 2:53 AM on Sunday 23 Nov 2014 (Local Time) from KPKB Reporting Station
Clear Clear  
Wind Chill: 39°   Ceiling: Unl
Heat Index: 43°   Visibility: 10mi
Dew Point: 27°   Wind: 6mph
Humidity: 53%   Direction: 170°S
Pressure: 30.13"   Gusts: NA
Location:  38.97°N, 81.16°W
Report Text: KPKB 230753Z AUTO 17005KT 10SM CLR 06/M03 A3013 RMK AO2 SLP204 T00611028
Loading
Personal Weather Stations






























Interactive Weather Map New forecast layout! Learn more

10-Day Weather Forecast

Advertisements
Track Severe Weather on mobile